Terminal Aerodrome Forecast
Issued by NWS

Home | Current Version | Previous Version | Text Only | Print | Product List | Glossary On
Versions: 1 2 3 4 5 6 7 8 9 10 11 12 13 14 15 16 17 18 19 20 21 22 23 24 25 26 27 28 29 30 31 32 33 34
000
FTUS41 KPBZ 282300
TAFAGC
TAF
KAGC 282321Z 2900/2924 32008KT P6SM BKN060
      TEMPO 2909/2912 BKN025=

USA.gov is the U.S. government's official web portal to all federal, state and local government web resources and services.